Bridge City, Texas
Current Conditions -  °F | °C
As of 6:15 AM on Thursday 18 Dec 2014 (Local Time) from KORG Reporting Station
Overcast Overcast  
Wind Chill: 57°   Ceiling: 3300
Heat Index: 57°   Visibility: 10mi
Dew Point: 55°   Wind: 0mph
Humidity: 92%   Direction: NA
Pressure: 30.09"   Gusts: NA
Location:  30.02°N, 93.84°W
Report Text: KORG 181215Z AUTO 00000KT 10SM SCT017 BKN033 OVC110 14/13 A3009 RMK AO2 T01390126
Loading
Personal Weather Stations






























Interactive Weather Map New forecast layout! Learn more

10-Day Weather Forecast

Advertisements
Track Severe Weather on mobile